createdAt,value
2023-04-11T00:02:04.979Z,10.70
2023-04-11T00:04:34.171Z,10.60
2023-04-11T00:07:01.318Z,10.60
2023-04-11T00:09:28.203Z,10.60
2023-04-11T00:11:55.009Z,10.60
2023-04-11T00:14:21.798Z,10.60
2023-04-11T00:16:49.933Z,10.60
2023-04-11T00:19:17.223Z,10.60
2023-04-11T00:21:44.270Z,10.60
2023-04-11T00:24:11.599Z,10.60
2023-04-11T00:26:38.481Z,10.50
2023-04-11T00:29:05.338Z,10.50
2023-04-11T00:31:32.481Z,10.40
2023-04-11T00:33:59.408Z,10.40
2023-04-11T00:36:27.058Z,10.40
2023-04-11T00:38:55.221Z,10.40
2023-04-11T00:41:22.295Z,10.30
2023-04-11T00:43:49.934Z,10.30
2023-04-11T00:46:17.926Z,10.40
2023-04-11T00:48:45.022Z,10.30
2023-04-11T00:51:11.873Z,10.40
2023-04-11T00:53:38.789Z,10.30
2023-04-11T00:56:06.743Z,10.30
2023-04-11T00:58:34.626Z,10.30
2023-04-11T01:01:02.202Z,10.20
2023-04-11T01:03:30.382Z,10.20
2023-04-11T01:05:57.539Z,10.20
2023-04-11T01:08:25.218Z,10.10
2023-04-11T01:10:52.266Z,10.10
2023-04-11T01:13:19.498Z,10.10
2023-04-11T01:15:46.378Z,10.10
2023-04-11T01:18:13.694Z,10.10
2023-04-11T01:20:40.553Z,10.10
2023-04-11T01:23:09.744Z,10.10
2023-04-11T01:25:36.600Z,10.10
2023-04-11T01:28:03.471Z,10.10
2023-04-11T01:30:30.425Z,10.00
2023-04-11T01:32:57.431Z,10.00
2023-04-11T01:35:25.423Z,10.00
2023-04-11T01:37:52.488Z,10.00
2023-04-11T01:40:21.368Z,10.00
2023-04-11T01:42:49.171Z,10.00
2023-04-11T01:45:16.459Z,10.00
2023-04-11T01:47:43.385Z,9.90
2023-04-11T01:50:12.149Z,10.00
2023-04-11T01:52:39.173Z,10.00
2023-04-11T01:55:06.532Z,9.90
2023-04-11T01:57:33.325Z,9.90
2023-04-11T02:00:00.867Z,9.90
2023-04-11T02:02:27.950Z,9.90
2023-04-11T02:04:54.908Z,9.90
2023-04-11T02:07:21.787Z,9.90
2023-04-11T02:09:48.605Z,9.80
2023-04-11T02:12:15.484Z,9.90
2023-04-11T02:14:44.135Z,9.80
2023-04-11T02:17:11.249Z,9.80
2023-04-11T02:19:41.141Z,9.70
2023-04-11T02:22:11.735Z,9.70
2023-04-11T02:24:38.829Z,9.60
2023-04-11T02:27:05.893Z,9.70
2023-04-11T02:29:33.079Z,9.60
2023-04-11T02:32:00.483Z,9.60
2023-04-11T02:34:27.405Z,9.50
2023-04-11T02:36:54.288Z,9.50
2023-04-11T02:39:24.297Z,9.40
2023-04-11T02:41:51.437Z,9.40
2023-04-11T02:44:19.406Z,9.30
2023-04-11T02:46:46.337Z,9.40
2023-04-11T02:49:13.231Z,9.40
2023-04-11T02:51:40.028Z,9.40
2023-04-11T02:54:07.646Z,9.40
2023-04-11T02:56:38.908Z,9.30
2023-04-11T02:59:07.045Z,9.30
2023-04-11T03:01:34.096Z,9.30
2023-04-11T03:04:01.167Z,9.30
2023-04-11T03:06:28.226Z,9.30
2023-04-11T03:08:56.340Z,9.30
2023-04-11T03:11:23.408Z,9.30
2023-04-11T03:13:50.463Z,9.40
2023-04-11T03:16:17.323Z,9.40
2023-04-11T03:18:44.188Z,9.50
2023-04-11T03:21:11.650Z,9.50
2023-04-11T03:23:39.161Z,9.50
2023-04-11T03:26:06.961Z,9.40
2023-04-11T03:28:33.865Z,9.30
2023-04-11T03:31:00.911Z,9.20
2023-04-11T03:33:27.762Z,9.00
2023-04-11T03:35:54.641Z,8.80
2023-04-11T03:38:21.441Z,8.60
2023-04-11T03:40:48.505Z,8.40
2023-04-11T03:43:16.925Z,8.30
2023-04-11T03:45:43.844Z,8.10
2023-04-11T03:48:10.992Z,8.00
2023-04-11T03:50:38.304Z,7.90
2023-04-11T03:53:05.795Z,7.80
2023-04-11T03:55:33.304Z,7.80
2023-04-11T03:58:00.493Z,7.80
2023-04-11T04:00:27.773Z,7.80
2023-04-11T04:02:54.739Z,7.70
2023-04-11T04:05:21.870Z,7.70
2023-04-11T04:07:48.740Z,7.70
2023-04-11T04:10:15.835Z,7.70
2023-04-11T04:12:44.063Z,7.70
2023-04-11T04:15:11.518Z,7.60
2023-04-11T04:17:38.406Z,7.60
2023-04-11T04:20:07.007Z,7.60
2023-04-11T04:22:34.011Z,7.70
2023-04-11T04:25:01.643Z,7.70
2023-04-11T04:27:28.489Z,7.70
2023-04-11T04:29:58.586Z,7.70
2023-04-11T04:32:30.800Z,7.70
2023-04-11T04:34:58.739Z,7.60
2023-04-11T04:37:27.278Z,7.60
2023-04-11T04:39:56.016Z,7.60
2023-04-11T04:42:24.915Z,7.50
2023-04-11T04:44:53.185Z,7.40
2023-04-11T04:47:22.752Z,7.40
2023-04-11T04:49:49.878Z,7.40
2023-04-11T04:52:16.825Z,7.30
2023-04-11T04:54:43.658Z,7.40
2023-04-11T04:57:10.731Z,7.40
2023-04-11T04:59:37.519Z,7.40
2023-04-11T05:02:04.560Z,7.40
2023-04-11T05:04:34.050Z,7.30
2023-04-11T05:07:01.612Z,7.30
2023-04-11T05:09:28.837Z,7.40
2023-04-11T05:11:56.796Z,7.30
2023-04-11T05:14:23.765Z,7.30
2023-04-11T05:16:51.372Z,7.40
2023-04-11T05:19:18.244Z,7.40
2023-04-11T05:21:45.049Z,7.40
2023-04-11T05:24:12.053Z,7.40
2023-04-11T05:26:38.926Z,7.40
2023-04-11T05:29:06.719Z,7.40
2023-04-11T05:31:33.662Z,7.40
2023-04-11T05:34:00.602Z,7.50
2023-04-11T05:36:28.416Z,7.50
2023-04-11T05:38:55.219Z,7.50
2023-04-11T05:41:22.325Z,7.50
2023-04-11T05:43:49.085Z,7.60
2023-04-11T05:46:15.994Z,7.70
2023-04-11T05:48:42.946Z,7.70
2023-04-11T05:51:09.883Z,7.80
2023-04-11T05:53:36.705Z,7.80
2023-04-11T05:56:03.617Z,7.90
2023-04-11T05:58:30.420Z,8.00
2023-04-11T06:00:59.482Z,8.10
2023-04-11T06:03:27.103Z,8.10
2023-04-11T06:05:54.568Z,8.10
2023-04-11T06:08:21.562Z,8.10
2023-04-11T06:10:48.451Z,8.00
2023-04-11T06:13:15.364Z,7.90
2023-04-11T06:15:42.278Z,7.90
2023-04-11T06:18:09.190Z,7.80
2023-04-11T06:20:36.034Z,7.90
2023-04-11T06:23:03.016Z,8.00
2023-04-11T06:25:29.931Z,8.00
2023-04-11T06:27:56.712Z,8.00
2023-04-11T06:30:23.616Z,8.00
2023-04-11T06:32:50.605Z,8.00
2023-04-11T06:35:20.404Z,7.90
2023-04-11T06:37:47.395Z,7.90
2023-04-11T06:40:14.366Z,8.00
2023-04-11T06:42:42.564Z,8.10
2023-04-11T06:45:10.203Z,8.20
2023-04-11T06:47:37.043Z,8.30
2023-04-11T06:50:04.533Z,8.20
2023-04-11T06:52:31.453Z,8.20
2023-04-11T06:54:58.335Z,8.10
2023-04-11T06:57:25.251Z,8.10
2023-04-11T06:59:52.068Z,8.10
2023-04-11T07:02:19.065Z,8.10
2023-04-11T07:04:46.128Z,8.10
2023-04-11T07:07:12.991Z,8.20
2023-04-11T07:09:39.806Z,8.20
2023-04-11T07:12:06.753Z,8.20
2023-04-11T07:14:33.509Z,8.30
2023-04-11T07:17:01.406Z,8.40
2023-04-11T07:19:28.666Z,8.40
2023-04-11T07:21:56.924Z,8.30
2023-04-11T07:24:23.860Z,8.30
2023-04-11T07:26:51.882Z,8.40
2023-04-11T07:29:19.137Z,8.50
2023-04-11T07:31:46.455Z,8.70
2023-04-11T07:34:13.237Z,8.90
2023-04-11T07:36:40.070Z,9.10
2023-04-11T07:39:09.380Z,9.30
2023-04-11T07:41:38.598Z,9.30
2023-04-11T07:44:09.758Z,9.40
2023-04-11T07:46:36.636Z,9.50
2023-04-11T07:49:03.526Z,9.40
2023-04-11T07:51:31.272Z,9.50
2023-04-11T07:53:58.227Z,9.50
2023-04-11T07:56:25.326Z,9.60
2023-04-11T07:58:52.168Z,9.60
2023-04-11T08:01:24.970Z,9.60
2023-04-11T08:03:54.363Z,9.60
2023-04-11T08:06:21.551Z,9.50
2023-04-11T08:08:49.116Z,9.50
2023-04-11T08:11:16.444Z,9.40
2023-04-11T08:13:43.478Z,9.50
2023-04-11T08:16:11.970Z,9.50
2023-04-11T08:18:42.184Z,9.40
2023-04-11T08:21:12.747Z,9.50
2023-04-11T08:23:42.440Z,9.60
2023-04-11T08:26:11.866Z,9.60
2023-04-11T08:28:43.357Z,9.60
2023-04-11T08:31:13.450Z,9.70
2023-04-11T08:33:40.674Z,9.90
2023-04-11T08:36:10.110Z,9.80
2023-04-11T08:38:38.539Z,9.90
2023-04-11T08:41:06.033Z,10.10
2023-04-11T08:43:34.244Z,10.30
2023-04-11T08:46:05.226Z,10.50
2023-04-11T08:48:32.438Z,10.40
2023-04-11T08:50:59.497Z,10.50
2023-04-11T08:53:27.682Z,10.40
2023-04-11T08:55:54.701Z,10.20
2023-04-11T08:58:21.565Z,10.00
2023-04-11T09:00:48.367Z,9.60
2023-04-11T09:03:16.907Z,9.70
2023-04-11T09:05:45.713Z,9.90
2023-04-11T09:08:14.000Z,10.20
2023-04-11T09:10:45.373Z,10.40
2023-04-11T09:13:26.928Z,10.40
2023-04-11T09:16:09.288Z,10.40
2023-04-11T09:18:38.496Z,10.50
2023-04-11T09:21:07.592Z,10.70
2023-04-11T09:23:35.495Z,10.90
2023-04-11T09:26:04.471Z,11.00
2023-04-11T09:28:44.720Z,10.80
2023-04-11T09:31:14.712Z,10.70
2023-04-11T09:33:53.239Z,10.80
2023-04-11T09:36:22.844Z,10.90
2023-04-11T09:38:49.664Z,10.80
2023-04-11T09:41:33.041Z,10.70
2023-04-11T09:44:00.942Z,10.50
2023-04-11T09:46:27.990Z,10.50
2023-04-11T09:48:56.837Z,10.40
2023-04-11T09:53:55.195Z,10.40
2023-04-11T09:56:24.101Z,10.40
2023-04-11T09:58:51.463Z,10.60
2023-04-11T10:01:20.031Z,10.60
2023-04-11T10:03:50.970Z,10.70
2023-04-11T10:06:31.805Z,10.60
2023-04-11T10:09:11.151Z,10.40
2023-04-11T10:11:41.368Z,10.40
2023-04-11T10:14:08.389Z,10.30
2023-04-11T10:16:35.430Z,10.10
2023-04-11T10:19:02.229Z,10.00
2023-04-11T10:21:33.168Z,10.00
2023-04-11T10:24:14.986Z,9.90
2023-04-11T10:26:48.633Z,9.90
2023-04-11T10:29:33.744Z,9.90
2023-04-11T10:32:15.663Z,10.00
2023-04-11T10:34:54.315Z,10.10
2023-04-11T10:37:30.445Z,10.20
2023-04-11T10:40:10.030Z,10.20
2023-04-11T10:42:42.628Z,10.30
2023-04-11T10:45:29.723Z,10.40
2023-04-11T10:47:59.146Z,10.60
2023-04-11T10:50:26.110Z,10.80
2023-04-11T10:52:59.424Z,11.20
2023-04-11T10:55:28.852Z,11.50
2023-04-11T10:58:19.518Z,11.70
2023-04-11T11:00:52.496Z,11.70
2023-04-11T11:03:20.994Z,11.70
2023-04-11T11:05:56.997Z,11.80
2023-04-11T11:08:46.835Z,11.70
2023-04-11T11:11:16.203Z,11.60
2023-04-11T11:13:47.419Z,11.60
2023-04-11T11:16:22.644Z,11.70
2023-04-11T11:18:52.903Z,11.70
2023-04-11T11:21:27.803Z,11.60
2023-04-11T11:24:00.378Z,11.70
2023-04-11T11:26:40.009Z,11.90
2023-04-11T11:29:08.084Z,12.00
2023-04-11T11:31:39.985Z,11.90
2023-04-11T11:36:41.411Z,11.90
2023-04-11T11:39:10.366Z,12.00
2023-04-11T11:41:38.503Z,12.10
2023-04-11T11:44:06.189Z,12.10
2023-04-11T11:46:35.407Z,11.90
2023-04-11T11:49:08.316Z,11.80
2023-04-11T11:51:41.917Z,11.60
2023-04-11T11:54:10.475Z,11.60
2023-04-11T11:56:38.428Z,11.60
2023-04-11T11:59:05.998Z,11.80
2023-04-11T12:01:37.312Z,11.90
2023-04-11T12:04:11.162Z,11.90
2023-04-11T12:06:38.121Z,11.80
2023-04-11T12:09:08.979Z,11.60
2023-04-11T12:11:40.707Z,11.50
2023-04-11T12:14:08.715Z,11.50
2023-04-11T12:16:37.773Z,11.60
2023-04-11T12:19:06.234Z,11.70
2023-04-11T12:21:33.072Z,11.70
2023-04-11T12:23:59.864Z,11.60
2023-04-11T12:26:26.719Z,11.20
2023-04-11T12:28:53.561Z,9.90
2023-04-11T12:31:21.275Z,9.00
2023-04-11T12:33:48.305Z,8.50
2023-04-11T12:36:15.517Z,8.40
2023-04-11T12:38:42.504Z,8.40
2023-04-11T12:43:41.008Z,8.70
2023-04-11T12:46:07.885Z,8.90
2023-04-11T12:48:34.830Z,9.20
2023-04-11T12:51:01.641Z,9.40
2023-04-11T12:53:28.448Z,9.60
2023-04-11T12:55:55.432Z,9.80
2023-04-11T12:58:22.323Z,10.10
2023-04-11T13:00:49.116Z,10.30
2023-04-11T13:03:16.273Z,10.30
2023-04-11T13:05:43.264Z,10.40
2023-04-11T13:08:10.155Z,10.30
2023-04-11T13:10:36.975Z,10.40
2023-04-11T13:13:17.023Z,10.20
2023-04-11T13:15:44.648Z,10.30
2023-04-11T13:18:11.500Z,10.40
2023-04-11T13:20:38.367Z,10.70
2023-04-11T13:23:05.605Z,11.00
2023-04-11T13:25:32.414Z,11.30
2023-04-11T13:27:59.324Z,11.40
2023-04-11T13:30:26.095Z,11.50
2023-04-11T13:32:52.971Z,11.50
2023-04-11T13:35:19.782Z,11.40
2023-04-11T13:37:47.182Z,11.30
2023-04-11T13:40:14.048Z,11.30
2023-04-11T13:42:40.953Z,11.20
2023-04-11T13:45:08.248Z,11.20
2023-04-11T13:47:38.230Z,11.10
2023-04-11T13:50:07.177Z,11.00
2023-04-11T13:52:33.955Z,11.00
2023-04-11T13:55:00.833Z,11.10
2023-04-11T13:57:28.555Z,11.10
2023-04-11T13:59:55.365Z,11.20
2023-04-11T14:02:22.368Z,11.20
2023-04-11T14:04:49.541Z,11.10
2023-04-11T14:07:16.339Z,11.10
2023-04-11T14:09:43.073Z,11.00
2023-04-11T14:12:09.852Z,10.90
2023-04-11T14:14:36.781Z,10.60
2023-04-11T14:17:03.713Z,10.40
2023-04-11T14:19:30.824Z,10.30
2023-04-11T14:21:58.009Z,10.30
2023-04-11T14:24:25.103Z,10.20
2023-04-11T14:26:52.208Z,10.00
2023-04-11T14:29:20.937Z,9.50
2023-04-11T14:31:48.618Z,9.10
2023-04-11T14:34:16.108Z,8.90
2023-04-11T14:36:42.932Z,8.70
2023-04-11T14:39:09.788Z,8.50
2023-04-11T14:41:36.639Z,8.10
2023-04-11T14:44:03.454Z,8.00
2023-04-11T14:46:30.400Z,8.00
2023-04-11T14:48:57.269Z,7.90
2023-04-11T14:51:27.156Z,7.90
2023-04-11T14:53:55.477Z,8.10
2023-04-11T14:56:23.243Z,8.20
2023-04-11T14:58:50.681Z,8.40
2023-04-11T15:01:18.346Z,8.70
2023-04-11T15:03:45.929Z,9.00
2023-04-11T15:06:13.301Z,9.20
2023-04-11T15:08:40.560Z,9.50
2023-04-11T15:11:08.098Z,9.80
2023-04-11T15:13:35.047Z,10.00
2023-04-11T15:16:02.920Z,10.20
2023-04-11T15:18:31.326Z,10.40
2023-04-11T15:21:03.348Z,10.50
2023-04-11T15:23:30.468Z,10.30
2023-04-11T15:26:02.667Z,10.10
2023-04-11T15:28:34.385Z,9.90
2023-04-11T15:31:02.467Z,9.80
2023-04-11T15:33:31.307Z,9.70
2023-04-11T15:36:00.337Z,9.60
2023-04-11T15:38:29.474Z,9.60
2023-04-11T15:40:58.468Z,9.80
2023-04-11T15:43:25.966Z,9.80
2023-04-11T15:45:54.545Z,9.90
2023-04-11T15:48:21.551Z,10.00
2023-04-11T15:50:48.690Z,10.00
2023-04-11T15:53:15.644Z,10.00
2023-04-11T15:55:43.253Z,10.10
2023-04-11T15:58:10.661Z,10.10
2023-04-11T16:00:38.371Z,10.00
2023-04-11T16:03:06.385Z,10.10
2023-04-11T16:05:33.868Z,10.10
2023-04-11T16:08:00.844Z,10.20
2023-04-11T16:10:27.845Z,10.20
2023-04-11T16:12:54.795Z,10.20
2023-04-11T16:15:21.640Z,10.20
2023-04-11T16:17:48.603Z,10.30
2023-04-11T16:20:20.040Z,10.30
2023-04-11T16:22:48.010Z,10.30
2023-04-11T16:25:16.043Z,10.30
2023-04-11T16:27:42.861Z,10.30
2023-04-11T16:30:09.976Z,10.30
2023-04-11T16:32:36.910Z,10.30
2023-04-11T16:35:03.876Z,10.30
2023-04-11T16:37:30.690Z,10.30
2023-04-11T16:39:57.955Z,10.30
2023-04-11T16:42:24.839Z,10.30
2023-04-11T16:44:51.701Z,10.30
2023-04-11T16:47:20.495Z,10.30
2023-04-11T16:49:47.432Z,10.30
2023-04-11T16:52:14.270Z,10.30
2023-04-11T16:54:41.049Z,10.30
2023-04-11T17:00:35.444Z,10.30
2023-04-11T17:03:28.049Z,10.40
2023-04-11T17:05:55.529Z,10.50
2023-04-11T17:08:22.410Z,10.60
2023-04-11T17:10:53.266Z,10.60
2023-04-11T17:13:20.071Z,10.50
2023-04-11T17:15:47.004Z,10.40
2023-04-11T17:18:14.985Z,10.20
2023-04-11T17:20:43.517Z,10.10
2023-04-11T17:23:10.702Z,10.20
2023-04-11T17:25:37.571Z,10.30
2023-04-11T17:28:04.531Z,10.30
2023-04-11T17:30:32.377Z,10.20
2023-04-11T17:33:00.198Z,10.00
2023-04-11T17:35:28.200Z,9.90
2023-04-11T17:37:55.654Z,9.70
2023-04-11T17:40:22.820Z,9.60
2023-04-11T17:42:49.945Z,9.50
2023-04-11T17:45:18.591Z,9.30
2023-04-11T17:47:49.441Z,9.20
2023-04-11T17:50:17.000Z,9.10
2023-04-11T17:52:45.135Z,9.00
2023-04-11T17:55:14.069Z,8.80
2023-04-11T17:57:41.199Z,8.70
2023-04-11T18:00:19.756Z,8.60
2023-04-11T18:02:48.992Z,8.50
2023-04-11T18:05:23.986Z,8.40
2023-04-11T18:07:54.173Z,8.30
2023-04-11T18:10:22.089Z,8.20
2023-04-11T18:12:51.522Z,8.00
2023-04-11T18:15:18.773Z,7.90
2023-04-11T18:17:45.765Z,7.80
2023-04-11T18:20:14.084Z,7.80
2023-04-11T18:22:49.441Z,7.80
2023-04-11T18:25:17.065Z,7.70
2023-04-11T18:27:44.046Z,7.70
2023-04-11T18:30:13.001Z,7.60
2023-04-11T18:32:44.985Z,7.40
2023-04-11T18:35:12.845Z,7.30
2023-04-11T18:37:40.979Z,7.20
2023-04-11T18:40:11.820Z,7.00
2023-04-11T18:42:40.354Z,6.90
2023-04-11T18:45:07.827Z,6.90
2023-04-11T18:47:35.571Z,6.80
2023-04-11T18:50:02.635Z,6.70
2023-04-11T18:52:29.458Z,6.60
2023-04-11T18:54:56.964Z,6.50
2023-04-11T18:57:25.871Z,6.40
2023-04-11T18:59:56.188Z,6.40
2023-04-11T19:02:24.554Z,6.40
2023-04-11T19:04:52.085Z,6.30
2023-04-11T19:07:20.148Z,6.30
2023-04-11T19:09:47.074Z,6.20
2023-04-11T19:12:16.983Z,6.20
2023-04-11T19:14:44.114Z,6.10
2023-04-11T19:17:14.693Z,6.10
2023-04-11T19:19:43.373Z,6.00
2023-04-11T19:22:10.247Z,5.90
2023-04-11T19:24:38.167Z,5.90
2023-04-11T19:27:05.711Z,5.80
2023-04-11T19:29:32.697Z,5.80
2023-04-11T19:31:59.771Z,5.80
2023-04-11T19:34:26.765Z,5.70
2023-04-11T19:36:54.057Z,5.70
2023-04-11T19:39:21.562Z,5.70
2023-04-11T19:41:48.849Z,5.70
2023-04-11T19:44:16.556Z,5.70
2023-04-11T19:46:43.362Z,5.70
2023-04-11T19:49:10.118Z,5.70
2023-04-11T19:51:37.039Z,5.70
2023-04-11T19:54:04.150Z,5.60
2023-04-11T19:56:32.309Z,5.60
2023-04-11T19:58:59.128Z,5.60
2023-04-11T20:02:19.187Z,5.50
2023-04-11T20:04:46.240Z,5.40
2023-04-11T20:07:14.346Z,5.30
2023-04-11T20:09:41.286Z,5.30
2023-04-11T20:12:08.283Z,5.30
2023-04-11T20:14:35.636Z,5.20
2023-04-11T20:17:02.596Z,5.20
2023-04-11T20:19:31.637Z,5.10
2023-04-11T20:22:03.230Z,5.10
2023-04-11T20:24:30.108Z,5.10
2023-04-11T20:26:57.114Z,5.00
2023-04-11T20:31:57.701Z,5.00
2023-04-11T20:34:24.499Z,5.00
2023-04-11T20:36:51.436Z,5.00
2023-04-11T20:39:18.272Z,5.00
2023-04-11T20:41:45.502Z,4.90
2023-04-11T20:44:12.324Z,4.80
2023-04-11T20:46:39.907Z,4.80
2023-04-11T20:49:06.984Z,4.80
2023-04-11T20:51:34.667Z,4.80
2023-04-11T20:54:01.722Z,4.80
2023-04-11T20:56:35.106Z,4.80
2023-04-11T20:59:02.428Z,4.80
2023-04-11T21:01:32.720Z,4.90
2023-04-11T21:04:03.572Z,4.80
2023-04-11T21:06:31.835Z,4.80
2023-04-11T21:09:00.317Z,4.80
2023-04-11T21:11:27.197Z,4.70
2023-04-11T21:13:54.832Z,4.70
2023-04-11T21:16:22.200Z,4.70
2023-04-11T21:18:49.075Z,4.60
2023-04-11T21:21:15.901Z,4.60
2023-04-11T21:23:43.503Z,4.50
2023-04-11T21:26:10.691Z,4.50
2023-04-11T21:28:37.558Z,4.50
2023-04-11T21:31:04.522Z,4.50
2023-04-11T21:33:31.418Z,4.50
2023-04-11T21:35:58.415Z,4.50
2023-04-11T21:38:25.328Z,4.50
2023-04-11T21:40:52.663Z,4.50
2023-04-11T21:43:19.560Z,4.50
2023-04-11T21:45:46.461Z,4.50
2023-04-11T21:48:13.281Z,4.30
2023-04-11T21:50:40.553Z,4.30
2023-04-11T21:53:07.472Z,4.40
2023-04-11T21:55:34.546Z,4.30
2023-04-11T21:58:01.386Z,4.30
2023-04-11T22:00:28.220Z,4.30
2023-04-11T22:02:55.241Z,4.20
2023-04-11T22:05:22.429Z,4.20
2023-04-11T22:07:50.622Z,4.30
2023-04-11T22:10:22.876Z,4.30
2023-04-11T22:12:50.642Z,4.30
2023-04-11T22:15:18.481Z,4.30
2023-04-11T22:17:50.412Z,4.30
2023-04-11T22:20:18.244Z,4.30
2023-04-11T22:22:46.112Z,4.30
2023-04-11T22:25:14.828Z,4.30
2023-04-11T22:27:41.630Z,4.40
2023-04-11T22:30:09.077Z,4.40
2023-04-11T22:32:37.115Z,4.40
2023-04-11T22:35:05.132Z,4.40
2023-04-11T22:37:31.970Z,4.40
2023-04-11T22:39:59.341Z,4.40
2023-04-11T22:42:26.600Z,4.40
2023-04-11T22:44:53.429Z,4.40
2023-04-11T22:47:21.777Z,4.30
2023-04-11T22:49:48.670Z,4.40
2023-04-11T22:52:15.691Z,4.30
2023-04-11T22:54:43.195Z,4.30
2023-04-11T22:57:10.466Z,4.30
2023-04-11T22:59:37.327Z,4.30
2023-04-11T23:02:04.260Z,4.30
2023-04-11T23:04:32.081Z,4.20
2023-04-11T23:06:59.281Z,4.20
2023-04-11T23:09:26.460Z,4.20
2023-04-11T23:11:53.597Z,4.20
2023-04-11T23:14:21.345Z,4.20
2023-04-11T23:16:48.797Z,4.20
2023-04-11T23:19:15.760Z,4.10
2023-04-11T23:21:43.056Z,4.20
2023-04-11T23:24:10.109Z,4.10
2023-04-11T23:26:37.205Z,4.10
2023-04-11T23:29:04.424Z,4.10
2023-04-11T23:31:34.134Z,4.10
2023-04-11T23:34:01.206Z,4.10
2023-04-11T23:36:29.124Z,4.10
2023-04-11T23:38:56.326Z,4.10
2023-04-11T23:41:23.667Z,4.00
2023-04-11T23:43:50.546Z,4.00
2023-04-11T23:46:18.183Z,4.00
2023-04-11T23:48:47.045Z,4.00
2023-04-11T23:51:14.380Z,4.00
2023-04-11T23:53:42.623Z,4.00
2023-04-11T23:56:09.923Z,4.00
2023-04-11T23:58:36.905Z,4.00
